sensor_id;sensor_type;location;lat;lon;timestamp;pressure;altitude;pressure_sealevel;temperature;humidity
13033;BME280;6583;42.632;23.298;2023-03-26T00:00:48;70352.41;;;-146.40;71.63
13033;BME280;6583;42.632;23.298;2023-03-26T00:03:18;70356.44;;;-146.40;71.48
13033;BME280;6583;42.632;23.298;2023-03-26T00:05:48;70368.59;;;-146.40;71.99
13033;BME280;6583;42.632;23.298;2023-03-26T00:08:15;70374.66;;;-146.40;72.91
13033;BME280;6583;42.632;23.298;2023-03-26T00:10:42;70380.72;;;-146.40;73.25
13033;BME280;6583;42.632;23.298;2023-03-26T00:13:09;70366.56;;;-146.40;74.39
13033;BME280;6583;42.632;23.298;2023-03-26T00:15:36;70356.44;;;-146.40;74.15
13033;BME280;6583;42.632;23.298;2023-03-26T00:18:06;70344.31;;;-146.40;73.10
13033;BME280;6583;42.632;23.298;2023-03-26T00:20:33;70336.22;;;-146.40;73.81
13033;BME280;6583;42.632;23.298;2023-03-26T00:23:00;70322.06;;;-146.40;71.73
13033;BME280;6583;42.632;23.298;2023-03-26T00:25:27;70311.94;;;-146.40;69.96
13033;BME280;6583;42.632;23.298;2023-03-26T00:27:56;70299.81;;;-146.40;69.94
13033;BME280;6583;42.632;23.298;2023-03-26T00:30:22;70301.84;;;-146.40;70.23
13033;BME280;6583;42.632;23.298;2023-03-26T00:32:49;70301.84;;;-146.40;71.01
13033;BME280;6583;42.632;23.298;2023-03-26T00:35:17;70311.94;;;-146.40;71.85
13033;BME280;6583;42.632;23.298;2023-03-26T00:37:45;70307.91;;;-146.40;72.54
13033;BME280;6583;42.632;23.298;2023-03-26T00:40:12;70311.94;;;-146.40;72.45
13033;BME280;6583;42.632;23.298;2023-03-26T00:42:39;70328.13;;;-146.40;72.67
13033;BME280;6583;42.632;23.298;2023-03-26T00:45:07;70328.13;;;-146.40;74.63
13033;BME280;6583;42.632;23.298;2023-03-26T00:47:34;70324.09;;;-146.40;73.11
13033;BME280;6583;42.632;23.298;2023-03-26T00:50:01;70320.03;;;-146.40;72.38
13033;BME280;6583;42.632;23.298;2023-03-26T00:52:30;70328.13;;;-146.40;69.54
13033;BME280;6583;42.632;23.298;2023-03-26T00:54:56;70336.22;;;-146.40;71.07
13033;BME280;6583;42.632;23.298;2023-03-26T00:57:23;70332.19;;;-146.40;72.04
13033;BME280;6583;42.632;23.298;2023-03-26T00:59:54;70338.25;;;-146.40;69.94
13033;BME280;6583;42.632;23.298;2023-03-26T01:02:21;70338.25;;;-146.40;70.75
13033;BME280;6583;42.632;23.298;2023-03-26T01:04:55;70332.19;;;-146.40;70.09
13033;BME280;6583;42.632;23.298;2023-03-26T01:07:24;70350.38;;;-146.40;70.63
13033;BME280;6583;42.632;23.298;2023-03-26T01:09:57;70352.41;;;-146.40;72.03
13033;BME280;6583;42.632;23.298;2023-03-26T01:12:26;70348.38;;;-146.40;73.22
13033;BME280;6583;42.632;23.298;2023-03-26T01:14:55;70354.44;;;-146.40;72.84
13033;BME280;6583;42.632;23.298;2023-03-26T01:17:25;70376.69;;;-146.40;72.62
13033;BME280;6583;42.632;23.298;2023-03-26T01:20:07;70370.63;;;-146.40;73.03
13033;BME280;6583;42.632;23.298;2023-03-26T01:22:41;70370.63;;;-146.40;73.60
13033;BME280;6583;42.632;23.298;2023-03-26T01:25:11;70376.69;;;-146.40;73.72
13033;BME280;6583;42.632;23.298;2023-03-26T01:27:41;70376.69;;;-146.40;74.70
13033;BME280;6583;42.632;23.298;2023-03-26T01:30:15;70380.72;;;-146.40;74.63
13033;BME280;6583;42.632;23.298;2023-03-26T01:32:52;70382.75;;;-146.40;74.76
13033;BME280;6583;42.632;23.298;2023-03-26T01:35:30;70405.00;;;-146.40;74.91
13033;BME280;6583;42.632;23.298;2023-03-26T01:38:05;70402.97;;;-146.40;74.75
13033;BME280;6583;42.632;23.298;2023-03-26T01:40:47;70392.88;;;-146.40;75.18
13033;BME280;6583;42.632;23.298;2023-03-26T01:43:25;70396.91;;;-146.40;75.89
13033;BME280;6583;42.632;23.298;2023-03-26T01:45:54;70382.75;;;-146.40;74.47
13033;BME280;6583;42.632;23.298;2023-03-26T01:48:28;70388.81;;;-146.40;72.37
13033;BME280;6583;42.632;23.298;2023-03-26T01:50:56;70382.75;;;-146.40;74.33
13033;BME280;6583;42.632;23.298;2023-03-26T01:53:23;70368.59;;;-146.40;74.54
13033;BME280;6583;42.632;23.298;2023-03-26T01:55:58;70370.63;;;-146.40;73.93
13033;BME280;6583;42.632;23.298;2023-03-26T01:58:34;70376.69;;;-146.40;71.78
13033;BME280;6583;42.632;23.298;2023-03-26T02:01:12;70376.69;;;-146.40;72.67
13033;BME280;6583;42.632;23.298;2023-03-26T02:03:46;70364.53;;;-146.40;71.56
13033;BME280;6583;42.632;23.298;2023-03-26T02:06:19;70362.53;;;-146.40;71.43
13033;BME280;6583;42.632;23.298;2023-03-26T02:08:52;70388.81;;;-146.40;74.75
13033;BME280;6583;42.632;23.298;2023-03-26T02:11:22;70388.81;;;-146.40;75.36
13033;BME280;6583;42.632;23.298;2023-03-26T02:13:49;70392.88;;;-146.40;76.66
13033;BME280;6583;42.632;23.298;2023-03-26T02:16:19;70396.91;;;-146.40;77.14
13033;BME280;6583;42.632;23.298;2023-03-26T02:18:46;70398.94;;;-146.40;72.05
13033;BME280;6583;42.632;23.298;2023-03-26T02:21:17;70392.88;;;-146.40;72.97
13033;BME280;6583;42.632;23.298;2023-03-26T02:23:48;70388.81;;;-146.40;73.68
13033;BME280;6583;42.632;23.298;2023-03-26T02:26:17;70382.75;;;-146.40;72.84
13033;BME280;6583;42.632;23.298;2023-03-26T02:28:45;70376.69;;;-146.40;70.71
13033;BME280;6583;42.632;23.298;2023-03-26T02:31:12;70380.72;;;-146.40;70.93
13033;BME280;6583;42.632;23.298;2023-03-26T02:33:41;70380.72;;;-146.40;70.18
13033;BME280;6583;42.632;23.298;2023-03-26T02:36:10;70376.69;;;-146.40;71.04
13033;BME280;6583;42.632;23.298;2023-03-26T02:38:38;70376.69;;;-146.40;70.86
13033;BME280;6583;42.632;23.298;2023-03-26T02:41:06;70372.63;;;-146.40;71.00
13033;BME280;6583;42.632;23.298;2023-03-26T02:43:33;70374.66;;;-146.40;71.52
13033;BME280;6583;42.632;23.298;2023-03-26T02:46:01;70396.91;;;-146.40;70.66
13033;BME280;6583;42.632;23.298;2023-03-26T02:48:27;70396.91;;;-146.40;71.75
13033;BME280;6583;42.632;23.298;2023-03-26T02:50:54;70421.19;;;-146.40;72.69
13033;BME280;6583;42.632;23.298;2023-03-26T02:53:21;70425.25;;;-146.40;72.93
13033;BME280;6583;42.632;23.298;2023-03-26T02:55:53;70423.22;;;-146.40;72.72
13033;BME280;6583;42.632;23.298;2023-03-26T02:58:20;70433.34;;;-146.40;72.52
13033;BME280;6583;42.632;23.298;2023-03-26T03:00:50;70443.44;;;-146.40;72.27
13033;BME280;6583;42.632;23.298;2023-03-26T03:03:20;70431.31;;;-146.40;72.53
13033;BME280;6583;42.632;23.298;2023-03-26T03:05:48;70437.38;;;-146.40;71.78
13033;BME280;6583;42.632;23.298;2023-03-26T03:08:16;70453.56;;;-146.40;73.25
13033;BME280;6583;42.632;23.298;2023-03-26T03:10:53;70453.56;;;-146.40;73.86
13033;BME280;6583;42.632;23.298;2023-03-26T03:13:20;70445.47;;;-146.40;74.69
13033;BME280;6583;42.632;23.298;2023-03-26T03:15:47;70453.56;;;-146.40;74.19
13033;BME280;6583;42.632;23.298;2023-03-26T03:18:13;70451.53;;;-146.40;74.47
13033;BME280;6583;42.632;23.298;2023-03-26T03:20:41;70461.66;;;-146.40;75.39
13033;BME280;6583;42.632;23.298;2023-03-26T03:23:09;70461.66;;;-146.40;75.41
13033;BME280;6583;42.632;23.298;2023-03-26T03:25:35;70471.78;;;-146.40;75.62
13033;BME280;6583;42.632;23.298;2023-03-26T03:28:03;70477.84;;;-146.40;75.85
13033;BME280;6583;42.632;23.298;2023-03-26T03:30:30;70477.84;;;-146.40;76.72
13033;BME280;6583;42.632;23.298;2023-03-26T03:32:57;70498.06;;;-146.40;76.45
13033;BME280;6583;42.632;23.298;2023-03-26T03:35:24;70483.91;;;-146.40;76.63
13033;BME280;6583;42.632;23.298;2023-03-26T03:37:53;70500.09;;;-146.40;76.97
13033;BME280;6583;42.632;23.298;2023-03-26T03:40:20;70504.16;;;-146.40;77.31
13033;BME280;6583;42.632;23.298;2023-03-26T03:42:46;70506.16;;;-146.40;77.38
13033;BME280;6583;42.632;23.298;2023-03-26T03:45:13;70506.16;;;-146.40;77.21
13033;BME280;6583;42.632;23.298;2023-03-26T03:47:40;70518.31;;;-146.40;77.80
13033;BME280;6583;42.632;23.298;2023-03-26T03:50:08;70506.16;;;-146.40;77.65
13033;BME280;6583;42.632;23.298;2023-03-26T03:52:35;70518.31;;;-146.40;77.51
13033;BME280;6583;42.632;23.298;2023-03-26T03:55:06;70514.25;;;-146.40;78.30
13033;BME280;6583;42.632;23.298;2023-03-26T03:57:34;70532.47;;;-146.40;77.10
13033;BME280;6583;42.632;23.298;2023-03-26T04:00:03;70522.34;;;-146.40;77.60
13033;BME280;6583;42.632;23.298;2023-03-26T04:02:33;70522.34;;;-146.40;77.13
13033;BME280;6583;42.632;23.298;2023-03-26T04:05:00;70530.44;;;-146.40;76.67
13033;BME280;6583;42.632;23.298;2023-03-26T04:07:28;70536.50;;;-146.40;75.86
13033;BME280;6583;42.632;23.298;2023-03-26T04:09:56;70528.41;;;-146.40;76.05
13033;BME280;6583;42.632;23.298;2023-03-26T04:12:28;70532.47;;;-146.40;76.06
13033;BME280;6583;42.632;23.298;2023-03-26T04:14:55;70554.72;;;-146.40;75.29
13033;BME280;6583;42.632;23.298;2023-03-26T04:17:22;70560.78;;;-146.40;76.02
13033;BME280;6583;42.632;23.298;2023-03-26T04:19:49;70566.88;;;-146.40;76.57
13033;BME280;6583;42.632;23.298;2023-03-26T04:22:17;70574.97;;;-146.40;77.42
13033;BME280;6583;42.632;23.298;2023-03-26T04:24:44;70579.00;;;-146.40;78.32
13033;BME280;6583;42.632;23.298;2023-03-26T04:27:15;70583.06;;;-146.40;78.05
13033;BME280;6583;42.632;23.298;2023-03-26T04:29:47;70595.19;;;-146.40;77.81
13033;BME280;6583;42.632;23.298;2023-03-26T04:32:21;70591.16;;;-146.40;78.25
13033;BME280;6583;42.632;23.298;2023-03-26T04:34:49;70595.19;;;-146.40;77.36
13033;BME280;6583;42.632;23.298;2023-03-26T04:37:23;70599.22;;;-146.40;77.86
13033;BME280;6583;42.632;23.298;2023-03-26T04:39:50;70599.22;;;-146.40;77.99
13033;BME280;6583;42.632;23.298;2023-03-26T04:42:17;70599.22;;;-146.40;78.16
13033;BME280;6583;42.632;23.298;2023-03-26T04:44:46;70625.53;;;-146.40;78.59
13033;BME280;6583;42.632;23.298;2023-03-26T04:47:15;70623.50;;;-146.40;79.01
13033;BME280;6583;42.632;23.298;2023-03-26T04:49:42;70623.50;;;-146.40;79.27
13033;BME280;6583;42.632;23.298;2023-03-26T04:52:09;70625.53;;;-146.40;78.43
13033;BME280;6583;42.632;23.298;2023-03-26T04:54:36;70635.66;;;-146.40;77.27
13033;BME280;6583;42.632;23.298;2023-03-26T04:57:05;70627.56;;;-146.40;76.95
13033;BME280;6583;42.632;23.298;2023-03-26T04:59:33;70625.53;;;-146.40;75.64
13033;BME280;6583;42.632;23.298;2023-03-26T05:02:04;70629.59;;;-146.40;75.03
13033;BME280;6583;42.632;23.298;2023-03-26T05:04:32;70615.41;;;-146.40;74.75
13033;BME280;6583;42.632;23.298;2023-03-26T05:07:01;70611.38;;;-146.40;73.83
13033;BME280;6583;42.632;23.298;2023-03-26T05:09:28;70605.31;;;-146.40;73.15
13033;BME280;6583;42.632;23.298;2023-03-26T05:11:55;70603.28;;;-146.40;72.89
13033;BME280;6583;42.632;23.298;2023-03-26T05:14:22;70599.22;;;-146.40;71.55
13033;BME280;6583;42.632;23.298;2023-03-26T05:16:50;70603.28;;;-146.40;71.56
13033;BME280;6583;42.632;23.298;2023-03-26T05:19:19;70593.16;;;-146.40;70.69
13033;BME280;6583;42.632;23.298;2023-03-26T05:21:46;70587.09;;;-146.40;70.56
13033;BME280;6583;42.632;23.298;2023-03-26T05:24:13;70566.88;;;-146.40;69.56
13033;BME280;6583;42.632;23.298;2023-03-26T05:26:40;70570.91;;;-146.40;69.02
13033;BME280;6583;42.632;23.298;2023-03-26T05:29:06;70562.81;;;-146.40;67.91
13033;BME280;6583;42.632;23.298;2023-03-26T05:31:33;70552.69;;;-146.40;67.76
13033;BME280;6583;42.632;23.298;2023-03-26T05:34:00;70546.63;;;-146.40;67.04
13033;BME280;6583;42.632;23.298;2023-03-26T05:36:28;70546.63;;;-146.40;66.93
13033;BME280;6583;42.632;23.298;2023-03-26T05:38:54;70536.50;;;-146.40;66.16
13033;BME280;6583;42.632;23.298;2023-03-26T05:41:21;70530.44;;;-146.40;65.96
13033;BME280;6583;42.632;23.298;2023-03-26T05:43:48;70520.34;;;-146.40;65.96
13033;BME280;6583;42.632;23.298;2023-03-26T05:46:15;70522.34;;;-146.40;64.41
13033;BME280;6583;42.632;23.298;2023-03-26T05:48:44;70510.22;;;-146.40;65.74
13033;BME280;6583;42.632;23.298;2023-03-26T05:51:11;70489.97;;;-146.40;66.09
13033;BME280;6583;42.632;23.298;2023-03-26T05:53:41;70500.09;;;-146.40;64.34
13033;BME280;6583;42.632;23.298;2023-03-26T05:56:08;70502.13;;;-146.40;63.53
13033;BME280;6583;42.632;23.298;2023-03-26T05:58:35;70481.88;;;-146.40;62.62
13033;BME280;6583;42.632;23.298;2023-03-26T06:01:05;70481.88;;;-146.40;63.69
13033;BME280;6583;42.632;23.298;2023-03-26T06:03:34;70467.72;;;-146.40;62.80
13033;BME280;6583;42.632;23.298;2023-03-26T06:06:00;70453.56;;;-146.40;61.77
13033;BME280;6583;42.632;23.298;2023-03-26T06:08:28;70451.53;;;-146.40;61.00
13033;BME280;6583;42.632;23.298;2023-03-26T06:11:01;70443.44;;;-146.40;60.29
13033;BME280;6583;42.632;23.298;2023-03-26T06:13:28;70449.53;;;-146.40;59.77
13033;BME280;6583;42.632;23.298;2023-03-26T06:15:55;70435.34;;;-146.40;59.28
13033;BME280;6583;42.632;23.298;2023-03-26T06:18:23;70427.25;;;-146.40;59.46
13033;BME280;6583;42.632;23.298;2023-03-26T06:20:50;70413.09;;;-146.40;59.25
13033;BME280;6583;42.632;23.298;2023-03-26T06:23:17;70415.13;;;-146.40;59.53
13033;BME280;6583;42.632;23.298;2023-03-26T06:25:44;70427.25;;;-146.40;57.06
13033;BME280;6583;42.632;23.298;2023-03-26T06:28:13;70413.09;;;-146.40;56.86
13033;BME280;6583;42.632;23.298;2023-03-26T06:30:40;70398.94;;;-146.40;57.46
13033;BME280;6583;42.632;23.298;2023-03-26T06:33:08;70396.91;;;-146.40;56.29
13033;BME280;6583;42.632;23.298;2023-03-26T06:35:35;70392.88;;;-146.40;55.93
13033;BME280;6583;42.632;23.298;2023-03-26T06:38:02;70382.75;;;-146.40;56.44
13033;BME280;6583;42.632;23.298;2023-03-26T06:40:29;70376.69;;;-146.40;56.86
13033;BME280;6583;42.632;23.298;2023-03-26T06:42:56;70370.63;;;-146.40;55.64
13033;BME280;6583;42.632;23.298;2023-03-26T06:45:24;70348.38;;;-146.40;54.06
13033;BME280;6583;42.632;23.298;2023-03-26T06:47:51;70348.38;;;-146.40;54.08
13033;BME280;6583;42.632;23.298;2023-03-26T06:50:18;70352.41;;;-146.40;53.44
13033;BME280;6583;42.632;23.298;2023-03-26T06:52:44;70348.38;;;-146.40;55.40
13033;BME280;6583;42.632;23.298;2023-03-26T06:55:12;70368.59;;;-146.40;56.34
13033;BME280;6583;42.632;23.298;2023-03-26T06:57:39;70392.88;;;-146.40;56.12
13033;BME280;6583;42.632;23.298;2023-03-26T07:00:10;70396.91;;;-146.40;56.67
13033;BME280;6583;42.632;23.298;2023-03-26T07:02:39;70388.81;;;-146.40;58.69
13033;BME280;6583;42.632;23.298;2023-03-26T07:05:06;70398.94;;;-146.40;57.12
13033;BME280;6583;42.632;23.298;2023-03-26T07:07:33;70392.88;;;-146.40;57.38
13033;BME280;6583;42.632;23.298;2023-03-26T07:09:59;70376.69;;;-146.40;57.47
13033;BME280;6583;42.632;23.298;2023-03-26T07:12:26;70356.44;;;-146.40;57.13
13033;BME280;6583;42.632;23.298;2023-03-26T07:14:53;70364.53;;;-146.40;56.49
13033;BME280;6583;42.632;23.298;2023-03-26T07:17:19;70382.75;;;-146.40;55.40
13033;BME280;6583;42.632;23.298;2023-03-26T07:19:47;70380.72;;;-146.40;55.83
13033;BME280;6583;42.632;23.298;2023-03-26T07:22:19;70368.59;;;-146.40;56.66
13033;BME280;6583;42.632;23.298;2023-03-26T07:24:46;70356.44;;;-146.40;55.89
13033;BME280;6583;42.632;23.298;2023-03-26T07:27:24;70346.34;;;-146.40;55.86
13033;BME280;6583;42.632;23.298;2023-03-26T07:29:56;70326.09;;;-146.40;54.49
13033;BME280;6583;42.632;23.298;2023-03-26T07:32:28;70313.97;;;-146.40;52.53
13033;BME280;6583;42.632;23.298;2023-03-26T07:35:05;70309.91;;;-146.40;53.30
13033;BME280;6583;42.632;23.298;2023-03-26T07:37:42;70297.78;;;-146.40;52.62
13033;BME280;6583;42.632;23.298;2023-03-26T07:40:20;70287.66;;;-146.40;51.13
13033;BME280;6583;42.632;23.298;2023-03-26T07:43:00;70259.34;;;-146.40;47.63
13033;BME280;6583;42.632;23.298;2023-03-26T07:45:32;70245.19;;;-146.40;45.59
13033;BME280;6583;42.632;23.298;2023-03-26T07:48:08;70237.09;;;-146.40;42.87
13033;BME280;6583;42.632;23.298;2023-03-26T07:50:40;70218.88;;;-146.40;44.88
13033;BME280;6583;42.632;23.298;2023-03-26T07:53:07;70208.78;;;-146.40;45.17
13033;BME280;6583;42.632;23.298;2023-03-26T07:55:49;70212.81;;;-146.40;43.80
13033;BME280;6583;42.632;23.298;2023-03-26T07:58:47;70208.78;;;-146.40;42.22
13033;BME280;6583;42.632;23.298;2023-03-26T08:01:26;70182.47;;;-146.40;42.19
13033;BME280;6583;42.632;23.298;2023-03-26T08:04:12;70166.28;;;-146.40;42.91
13033;BME280;6583;42.632;23.298;2023-03-26T08:06:45;70164.25;;;-146.40;43.36
13033;BME280;6583;42.632;23.298;2023-03-26T08:09:18;70148.09;;;-146.40;43.24
13033;BME280;6583;42.632;23.298;2023-03-26T08:11:53;70150.09;;;-146.40;41.72
13033;BME280;6583;42.632;23.298;2023-03-26T08:14:32;70146.06;;;-146.40;42.35
13033;BME280;6583;42.632;23.298;2023-03-26T08:17:09;70148.09;;;-146.40;41.84
13033;BME280;6583;42.632;23.298;2023-03-26T08:19:54;70146.06;;;-146.40;42.13
13033;BME280;6583;42.632;23.298;2023-03-26T08:22:29;70162.25;;;-146.40;42.48
13033;BME280;6583;42.632;23.298;2023-03-26T08:25:17;70154.16;;;-146.40;42.83
13033;BME280;6583;42.632;23.298;2023-03-26T08:27:53;70146.06;;;-146.40;42.35
13033;BME280;6583;42.632;23.298;2023-03-26T08:30:25;70131.91;;;-146.40;42.61
13033;BME280;6583;42.632;23.298;2023-03-26T08:32:54;70117.72;;;-146.40;42.90
13033;BME280;6583;42.632;23.298;2023-03-26T08:35:21;70125.81;;;-146.40;42.13
13033;BME280;6583;42.632;23.298;2023-03-26T08:37:49;70142.00;;;-146.40;41.75
13033;BME280;6583;42.632;23.298;2023-03-26T08:40:30;70129.88;;;-146.40;43.04
13033;BME280;6583;42.632;23.298;2023-03-26T08:43:27;70107.63;;;-146.40;43.11
13033;BME280;6583;42.632;23.298;2023-03-26T08:46:23;70117.72;;;-146.40;40.96
13033;BME280;6583;42.632;23.298;2023-03-26T08:49:02;70113.69;;;-146.40;40.13
13033;BME280;6583;42.632;23.298;2023-03-26T08:52:13;70119.75;;;-146.40;39.88
13033;BME280;6583;42.632;23.298;2023-03-26T08:55:02;70113.69;;;-146.40;40.07
13033;BME280;6583;42.632;23.298;2023-03-26T09:00:38;70121.78;;;-146.40;41.22
13033;BME280;6583;42.632;23.298;2023-03-26T09:03:47;70117.72;;;-146.40;40.15
13033;BME280;6583;42.632;23.298;2023-03-26T09:06:29;70105.59;;;-146.40;41.32
13033;BME280;6583;42.632;23.298;2023-03-26T09:12:25;70105.59;;;-146.40;41.68
13033;BME280;6583;42.632;23.298;2023-03-26T09:18:25;70081.31;;;-146.40;40.33
13033;BME280;6583;42.632;23.298;2023-03-26T09:27:08;70059.06;;;-146.40;39.60
13033;BME280;6583;42.632;23.298;2023-03-26T09:33:04;70038.84;;;-146.40;37.65
13033;BME280;6583;42.632;23.298;2023-03-26T09:35:53;70030.75;;;-146.40;38.50
13033;BME280;6583;42.632;23.298;2023-03-26T09:38:39;70028.72;;;-146.40;38.80
13033;BME280;6583;42.632;23.298;2023-03-26T09:41:14;70036.81;;;-146.40;38.21
13033;BME280;6583;42.632;23.298;2023-03-26T09:44:12;70020.63;;;-146.40;37.87
13033;BME280;6583;42.632;23.298;2023-03-26T09:46:51;70026.69;;;-146.40;37.34
13033;BME280;6583;42.632;23.298;2023-03-26T09:49:41;70042.88;;;-146.40;37.53
13033;BME280;6583;42.632;23.298;2023-03-26T09:52:18;70038.84;;;-146.40;37.58
13033;BME280;6583;42.632;23.298;2023-03-26T09:54:59;70012.53;;;-146.40;38.17
13033;BME280;6583;42.632;23.298;2023-03-26T09:57:48;69980.19;;;-146.40;35.58
13033;BME280;6583;42.632;23.298;2023-03-26T10:00:27;69980.19;;;-146.40;36.26
13033;BME280;6583;42.632;23.298;2023-03-26T10:03:17;69964.00;;;-146.40;34.77
13033;BME280;6583;42.632;23.298;2023-03-26T10:05:56;69949.84;;;-146.40;35.80
13033;BME280;6583;42.632;23.298;2023-03-26T10:08:40;69978.16;;;-146.40;35.14
13033;BME280;6583;42.632;23.298;2023-03-26T10:11:17;69976.13;;;-146.40;35.33
13033;BME280;6583;42.632;23.298;2023-03-26T10:14:07;69972.09;;;-146.40;37.34
13033;BME280;6583;42.632;23.298;2023-03-26T10:16:48;69978.16;;;-146.40;35.61
13033;BME280;6583;42.632;23.298;2023-03-26T10:19:33;69972.09;;;-146.40;35.69
13033;BME280;6583;42.632;23.298;2023-03-26T10:22:12;69968.03;;;-146.40;35.09
13033;BME280;6583;42.632;23.298;2023-03-26T10:24:55;69974.09;;;-146.40;33.59
13033;BME280;6583;42.632;23.298;2023-03-26T10:27:34;69959.94;;;-146.40;36.48
13033;BME280;6583;42.632;23.298;2023-03-26T10:30:26;69947.81;;;-146.40;35.39
13033;BME280;6583;42.632;23.298;2023-03-26T10:33:01;69966.00;;;-146.40;32.30
13033;BME280;6583;42.632;23.298;2023-03-26T10:35:40;69961.97;;;-146.40;31.73
13033;BME280;6583;42.632;23.298;2023-03-26T10:38:17;69953.88;;;-146.40;34.12
13033;BME280;6583;42.632;23.298;2023-03-26T10:40:53;69939.72;;;-146.40;35.89
13033;BME280;6583;42.632;23.298;2023-03-26T10:43:50;69925.56;;;-146.40;34.21
13033;BME280;6583;42.632;23.298;2023-03-26T10:49:43;69919.50;;;-146.40;31.50
13033;BME280;6583;42.632;23.298;2023-03-26T10:52:17;69919.50;;;-146.40;30.66
13033;BME280;6583;42.632;23.298;2023-03-26T10:54:52;69917.47;;;-146.40;32.37
13033;BME280;6583;42.632;23.298;2023-03-26T10:57:32;69899.25;;;-146.40;32.50
13033;BME280;6583;42.632;23.298;2023-03-26T11:00:12;69891.16;;;-146.40;31.61
13033;BME280;6583;42.632;23.298;2023-03-26T11:02:46;69877.00;;;-146.40;31.06
13033;BME280;6583;42.632;23.298;2023-03-26T11:05:25;69881.06;;;-146.40;30.98
13033;BME280;6583;42.632;23.298;2023-03-26T11:07:58;69891.16;;;-146.40;31.33
13033;BME280;6583;42.632;23.298;2023-03-26T11:10:36;69887.13;;;-146.40;31.55
13033;BME280;6583;42.632;23.298;2023-03-26T11:13:16;69903.31;;;-146.40;29.68
13033;BME280;6583;42.632;23.298;2023-03-26T11:15:47;69911.41;;;-146.40;29.81
13033;BME280;6583;42.632;23.298;2023-03-26T11:18:18;69911.41;;;-146.40;30.63
13033;BME280;6583;42.632;23.298;2023-03-26T11:20:51;69897.25;;;-146.40;31.33
13033;BME280;6583;42.632;23.298;2023-03-26T11:23:33;69887.13;;;-146.40;30.11
13033;BME280;6583;42.632;23.298;2023-03-26T11:26:07;69862.84;;;-146.40;31.00
13033;BME280;6583;42.632;23.298;2023-03-26T11:28:45;69842.63;;;-146.40;31.02
13033;BME280;6583;42.632;23.298;2023-03-26T11:31:18;69830.47;;;-146.40;31.07
13033;BME280;6583;42.632;23.298;2023-03-26T11:33:52;69834.53;;;-146.40;30.91
13033;BME280;6583;42.632;23.298;2023-03-26T11:36:24;69838.56;;;-146.40;30.84
13033;BME280;6583;42.632;23.298;2023-03-26T11:38:56;69826.44;;;-146.40;31.60
13033;BME280;6583;42.632;23.298;2023-03-26T11:41:26;69816.31;;;-146.40;31.58
13033;BME280;6583;42.632;23.298;2023-03-26T11:43:58;69814.31;;;-146.40;29.78
13033;BME280;6583;42.632;23.298;2023-03-26T11:46:27;69800.16;;;-146.40;31.04
13033;BME280;6583;42.632;23.298;2023-03-26T11:48:56;69802.16;;;-146.40;31.07
13033;BME280;6583;42.632;23.298;2023-03-26T11:51:30;69792.06;;;-146.40;30.57
13033;BME280;6583;42.632;23.298;2023-03-26T11:53:58;69785.97;;;-146.40;29.98
13033;BME280;6583;42.632;23.298;2023-03-26T11:56:28;69765.75;;;-146.40;32.24
13033;BME280;6583;42.632;23.298;2023-03-26T11:59:00;69769.81;;;-146.40;30.89
13033;BME280;6583;42.632;23.298;2023-03-26T12:01:43;69751.59;;;-146.40;30.97
13033;BME280;6583;42.632;23.298;2023-03-26T12:04:16;69735.41;;;-146.40;32.72
13033;BME280;6583;42.632;23.298;2023-03-26T12:06:51;69721.25;;;-146.40;30.65
13033;BME280;6583;42.632;23.298;2023-03-26T12:09:22;69705.06;;;-146.40;32.68
13033;BME280;6583;42.632;23.298;2023-03-26T12:11:52;69703.06;;;-146.40;32.39
13033;BME280;6583;42.632;23.298;2023-03-26T12:14:22;69705.06;;;-146.40;29.74
13033;BME280;6583;42.632;23.298;2023-03-26T12:17:02;69696.97;;;-146.40;30.94
13033;BME280;6583;42.632;23.298;2023-03-26T12:19:35;69717.22;;;-146.40;29.78
13033;BME280;6583;42.632;23.298;2023-03-26T12:22:03;69709.13;;;-146.40;30.37
13033;BME280;6583;42.632;23.298;2023-03-26T12:24:34;69701.03;;;-146.40;30.40
13033;BME280;6583;42.632;23.298;2023-03-26T12:27:19;69705.06;;;-146.40;31.29
13033;BME280;6583;42.632;23.298;2023-03-26T12:29:49;69717.22;;;-146.40;30.61
13033;BME280;6583;42.632;23.298;2023-03-26T12:32:16;69705.06;;;-146.40;31.89
13033;BME280;6583;42.632;23.298;2023-03-26T12:34:43;69696.97;;;-146.40;29.77
13033;BME280;6583;42.632;23.298;2023-03-26T12:37:33;69699.00;;;-146.40;29.54
13033;BME280;6583;42.632;23.298;2023-03-26T12:40:07;69682.81;;;-146.40;29.14
13033;BME280;6583;42.632;23.298;2023-03-26T12:42:39;69678.78;;;-146.40;27.94
13033;BME280;6583;42.632;23.298;2023-03-26T12:45:11;69670.69;;;-146.40;28.49
13033;BME280;6583;42.632;23.298;2023-03-26T12:47:38;69660.56;;;-146.40;28.57
13033;BME280;6583;42.632;23.298;2023-03-26T12:50:07;69652.47;;;-146.40;28.31
13033;BME280;6583;42.632;23.298;2023-03-26T12:53:03;69654.50;;;-146.40;26.27
13033;BME280;6583;42.632;23.298;2023-03-26T12:55:39;69662.59;;;-146.40;26.81
13033;BME280;6583;42.632;23.298;2023-03-26T12:58:23;69668.66;;;-146.40;26.85
13033;BME280;6583;42.632;23.298;2023-03-26T13:01:02;69664.63;;;-146.40;28.33
13033;BME280;6583;42.632;23.298;2023-03-26T13:03:38;69668.66;;;-146.40;27.74
13033;BME280;6583;42.632;23.298;2023-03-26T13:06:21;69656.53;;;-146.40;29.38
13033;BME280;6583;42.632;23.298;2023-03-26T13:12:12;69658.56;;;-146.40;29.65
13033;BME280;6583;42.632;23.298;2023-03-26T13:14:54;69656.53;;;-146.40;29.99
13033;BME280;6583;42.632;23.298;2023-03-26T13:17:29;69632.25;;;-146.40;29.55
13033;BME280;6583;42.632;23.298;2023-03-26T13:20:02;69644.38;;;-146.40;27.05
13033;BME280;6583;42.632;23.298;2023-03-26T13:22:36;69634.28;;;-146.40;28.62
13033;BME280;6583;42.632;23.298;2023-03-26T13:25:16;69648.44;;;-146.40;25.67
13033;BME280;6583;42.632;23.298;2023-03-26T13:27:52;69632.25;;;-146.40;26.82
13033;BME280;6583;42.632;23.298;2023-03-26T13:30:29;69628.22;;;-146.40;26.58
13033;BME280;6583;42.632;23.298;2023-03-26T13:33:10;69634.28;;;-146.40;26.76